Terminal Aerodrome Forecast
Issued by NWS

Home | Current Version | Previous Version | Text Only | Print | Product List | Glossary On
Versions: 1 2 3 4 5 6 7 8 9 10 11 12 13
000
FTUS44 KLZK 242300
TAFHOT
TAF
KHOT 242320Z 2500/2524 22004KT P6SM SCT250
      TEMPO 2509/2513 2SM BR SCT003
     FM251800 27006KT P6SM SCT250=

USA.gov is the U.S. government's official web portal to all federal, state and local government web resources and services.